Flight Track Log - Related Links

Times and Time Zones

All times are in EDT time to prevent confusion due to time zone crossing. See the EJA922 flight status page for this flight to view local times or setup timezone preferences in your user account.


Time Position Orientation Groundspeed Altitude Reporting Facility
EDT Latitude Longitude Course Direction KTS MPH feet Rate Location/Type
Mon 07:22:00 AM 40.8167 -74.1167 338° Northwest 190 219 1,400  Level New York TRACON
Mon 07:23:00 AM 40.8167 -74.1833 270° West 211 243 2,100 1,600 Climbing New York TRACON
Mon 07:24:00 AM 40.8167 -74.2667 270° West 233 268 4,600 2,947 Climbing New York TRACON
Mon 07:24:54 AM 40.8333 -74.3500 285° West 272 313 7,700 2,025 Climbing New York TRACON
Mon 07:26:43 AM 40.9744 -74.4044 344° North 321 369 10,100 847 Climbing New York Center
Mon 07:27:00 AM 41.3326 -74.3246 338° Northwest  Level Estimated
Mon 07:27:44 AM 41.0731 -74.4481 342° North 346 398 10,100  Level New York Center
Mon 07:28:42 AM 41.1617 -74.4833 343° North 364 419 10,100 353 Level New York Center
Mon 07:29:43 AM 41.2683 -74.5306 342° North 364 419 10,800 992 Climbing New York Center
Mon 07:30:43 AM 41.3547 -74.5658 343° North 364 419 12,100 980 Climbing New York Center
Mon 07:32:59 AM 41.5906 -74.6717 341° North 367 422 14,000 582 Climbing Boston Center
Mon 07:33:59 AM 41.6897 -74.7114 343° North 367 422 14,000  Level Boston Center
Mon 07:34:59 AM 41.7869 -74.7567 341° North 367 422 14,000  Level Boston Center
Mon 07:36:00 AM 41.8839 -74.7992 342° North 367 422 14,000  Level Boston Center
Mon 07:36:58 AM 41.9831 -74.8447 341° North 362 417 14,000  Level Boston Center
Mon 07:37:58 AM 42.0864 -74.8908 342° North 373 429 14,000  Level Boston Center
Mon 07:38:59 AM 42.1894 -74.9339 343° North 380 437 14,000  Level Boston Center
Mon 07:39:59 AM 42.2886 -74.9800 341° North 380 437 14,000 -397 Level Boston Center
Mon 07:41:00 AM 42.3875 -75.0264 341° North 380 437 13,200 -1,041 Descending Boston Center
Mon 07:42:00 AM 42.4867 -75.0697 342° North 380 437 11,900 -1,245 Descending Boston Center
Mon 07:42:46 AM 42.5611 -75.0928 347° North 361 415 11,000 -729 Descending Boston Center
Mon 07:43:47 AM 42.6631 -75.1083 354° North 347 399 10,600 -893 Descending Boston Center
Mon 07:44:47 AM 42.7503 -75.1233 353° North 303 349 9,200 -793 Descending Boston Center
Mon 07:45:48 AM 42.8283 -75.0731 25° Northeast 315 362 9,000 -98 Descending Boston Center
Mon 07:46:49 AM 42.8967 -75.0022 37° Northeast 319 367 9,000 -595 Level Boston Center
Mon 07:47:49 AM 42.9628 -74.9369 36° Northeast 291 335 7,800 -1,385 Descending Boston Center
Mon 07:48:59 AM 43.0433 -74.8833 26° Northeast 289 333 6,000 -1,448 Descending Boston Center
Mon 07:49:45 AM 43.0689 -74.9442 300° West 231 266 5,000 -1,189 Descending Boston Center
Mon 07:50:45 AM 43.0756 -75.0183 277° West 200 230 3,900 -744 Descending Boston Center
Mon 07:51:46 AM 43.0761 -75.0950 271° West 190 219 3,500 -179 Descending Boston Center
Mon 07:52:59 AM 43.0800 -75.1861 273° West 191 220 3,500 47 Level Boston Center
Mon 07:53:53 AM 43.1081 -75.2331 309° West 184 212 3,600 -278 Climbing Boston Center
Mon 07:54:47 AM 43.1383 -75.2742 315° West 152 175 3,000 -730 Descending Boston Center
Mon 07:55:48 AM 43.1644 -75.3153 311° West 147 169 2,200 -787 Descending Boston Center
Mon 07:56:49 AM 43.1906 -75.3508 315° West 136 157 1,400 -45 Descending Boston Center
Mon 07:58:01 AM 43.2289 -75.4067 313° West 187 215 2,100 472 Climbing Boston Center
Mon 07:58:56 AM 43.2786 -75.4178 351° North 204 235 2,400 -103 Climbing Boston Center
Mon 07:59:57 AM 43.2964 -75.4556 303° West 166 191 1,900 -198 Descending Boston Center
Mon 08:00:57 AM 43.2600 -75.4881 213° Southwest 167 192 2,000 397 Climbing Boston Center
Mon 08:01:58 AM 43.2492 -75.4247 103° East 225 259 2,700 496 Climbing Boston Center
Mon 08:02:58 AM 43.2986 -75.3700 39° Northeast 236 272 3,000 149 Climbing Boston Center
Mon 08:03:59 AM 43.3578 -75.3414 19° North 231 266 3,000  Level Boston Center
Mon 08:05:07 AM 43.4083 -75.4011 319° Northwest 217 250 3,000  Level Boston Center
Mon 08:06:07 AM 43.4439 -75.4714 305° West 224 258 3,000  Level Boston Center
Mon 08:07:07 AM 43.4567 -75.5381 285° West 199 229 3,000  Level Boston Center
Mon 08:08:08 AM 43.4300 -75.5967 238° Southwest 182 209 3,000  Level Boston Center
Mon 08:09:08 AM 43.3856 -75.6200 201° Southwest 185 213 3,000  Level Boston Center
Mon 08:10:09 AM 43.3433 -75.5722 141° Southeast 188 216 3,000 -248 Level Boston Center
Mon 08:11:09 AM 43.3111 -75.5219 131° Southeast 169 194 2,500 -524 Descending Boston Center
Mon 08:12:15 AM 43.2811 -75.4778 133° Southeast 137 158 1,900 661 Descending Boston Center
Mon 08:13:16 AM 43.2431 -75.4186 131° Southeast 236 272 3,900 1,033 Climbing Boston Center
Mon 08:14:17 AM 43.1906 -75.3508 137° Southeast 241 277 4,000  Climbing Boston Center
Mon 08:15:11 AM 43.1564 -75.3036 135° Southeast 218 251 3,900  Descending Boston Center
Mon 08:16:11 AM 43.1142 -75.2447 134° Southeast 217 250 4,000 46 Climbing Boston Center
Mon 08:17:21 AM 43.0658 -75.1742 133° Southeast 219 252 4,000  Level Boston Center
Mon 08:18:22 AM 43.0531 -75.0942 102° East 209 241 4,000  Level Boston Center
Mon 08:19:16 AM 43.0200 -75.0842 168° South 190 219 4,000  Level Boston Center
Mon 08:20:16 AM 43.0458 -75.1419 301° West 187 215 4,000  Level Boston Center
Mon 08:21:17 AM 43.0797 -75.1975 310° West 200 230 4,000  Level Boston Center
Mon 08:22:18 AM 43.1261 -75.1769 18° North 229 264 4,000  Level Boston Center
Mon 08:23:16 AM 43.0944 -75.1128 124° Southeast 216 249 4,000  Level Boston Center
Mon 08:24:20 AM 43.0411 -75.0653 147° Southeast 211 243 4,000  Level Boston Center
Mon 08:25:17 AM 43.0294 -75.1242 255° West 197 227 4,000  Level Boston Center
Mon 08:26:06 AM 43.0617 -75.1683 315° West 205 236 4,000  Level Boston Center
Mon 08:27:07 AM 43.1006 -75.2069 324° Northwest 179 206 4,000  Level Boston Center
Mon 08:28:08 AM 43.1061 -75.1475 83° East 197 227 4,000  Level Boston Center
Mon 08:29:15 AM 43.0656 -75.0917 135° Southeast 189 217 4,000  Level Boston Center
Mon 08:30:16 AM 43.0239 -75.0956 184° South 181 208 4,000  Level Boston Center
Mon 08:31:18 AM 43.0497 -75.1481 304° West 181 208 4,000  Level Boston Center
Mon 08:32:18 AM 43.0800 -75.1947 312° West 168 193 4,000  Level Boston Center
Mon 08:33:16 AM 43.1117 -75.1678 32° Northeast 204 235 4,000  Level Boston Center
Mon 08:34:23 AM 43.0764 -75.1719 185° South 170 196 4,000  Level Boston Center
Mon 08:35:26 AM 43.0914 -75.2408 287° West 192 221 4,000  Level Boston Center
Mon 08:36:33 AM 43.1100 -75.3214 288° West 203 234 4,000  Level Boston Center
Mon 08:37:40 AM 43.1269 -75.3961 287° West 188 216 4,000  Level Boston Center
Mon 08:38:40 AM 43.1442 -75.4594 290° West 188 216 4,000  Level Boston Center
Mon 08:39:34 AM 43.1825 -75.5042 320° Northwest 193 222 4,000  Level Boston Center
Mon 08:40:35 AM 43.2228 -75.5517 319° Northwest 191 220 4,000  Level Boston Center
Mon 08:41:35 AM 43.2314 -75.6206 280° West 182 209 4,000  Level Boston Center
Mon 08:42:29 AM 43.2381 -75.6808 279° West 180 207 4,000  Level Boston Center
Mon 08:43:30 AM 43.2486 -75.7497 282° West 181 208 4,000  Level Boston Center

Login

Don't have an account? Register now (free) for customized features, flight alerts, and more!